createdAt,value
2023-05-08T00:01:08.699Z,3.70
2023-05-08T00:14:08.701Z,3.70
2023-05-08T00:27:08.705Z,3.50
2023-05-08T00:40:08.705Z,3.50
2023-05-08T00:53:08.739Z,3.20
2023-05-08T01:06:08.734Z,3.10
2023-05-08T01:19:08.767Z,3.20
2023-05-08T01:32:08.770Z,3.10
2023-05-08T01:45:08.791Z,2.90
2023-05-08T01:58:08.823Z,3.20
2023-05-08T02:11:08.842Z,2.70
2023-05-08T02:24:08.863Z,3.00
2023-05-08T02:37:08.878Z,2.60
2023-05-08T02:50:08.868Z,2.90
2023-05-08T03:03:08.938Z,2.80
2023-05-08T03:16:08.942Z,2.60
2023-05-08T03:29:08.951Z,2.50
2023-05-08T03:42:08.962Z,2.50
2023-05-08T03:55:08.970Z,2.50
2023-05-08T04:09:09.065Z,2.60
2023-05-08T04:23:09.115Z,2.50
2023-05-08T04:34:09.112Z,2.65
2023-05-08T04:48:09.223Z,2.40
2023-05-08T05:02:09.221Z,2.45
2023-05-08T05:16:09.232Z,3.35
2023-05-08T05:30:09.204Z,3.75
2023-05-08T05:44:09.198Z,3.35
2023-05-08T05:58:09.259Z,6.30
2023-05-08T06:10:09.219Z,9.00
2023-05-08T06:24:09.206Z,9.50
2023-05-08T06:38:09.201Z,9.50
2023-05-08T06:52:09.197Z,8.90
2023-05-08T07:06:09.212Z,8.80
2023-05-08T07:20:09.216Z,7.90
2023-05-08T07:34:09.203Z,6.90
2023-05-08T07:48:09.963Z,6.20
2023-05-08T08:02:09.240Z,5.50
2023-05-08T08:16:09.229Z,5.30
2023-05-08T08:30:16.619Z,5.10
2023-05-08T08:44:09.238Z,4.90
2023-05-08T08:58:09.242Z,4.70
2023-05-08T09:09:09.226Z,4.20
2023-05-08T09:20:09.249Z,3.70
2023-05-08T09:31:09.274Z,3.60
2023-05-08T09:45:09.241Z,3.40
2023-05-08T09:59:09.266Z,3.30
2023-05-08T10:13:09.304Z,3.50
2023-05-08T10:27:09.264Z,3.00
2023-05-08T10:41:09.275Z,2.70
2023-05-08T10:52:09.297Z,2.80
2023-05-08T11:03:14.274Z,2.80
2023-05-08T11:14:09.278Z,2.60
2023-05-08T11:28:09.299Z,2.45
2023-05-08T11:42:09.296Z,2.20
2023-05-08T11:53:09.297Z,2.20
2023-05-08T12:04:09.401Z,2.40
2023-05-08T12:15:09.316Z,2.30
2023-05-08T12:29:09.312Z,2.30
2023-05-08T12:40:09.321Z,2.20
2023-05-08T12:54:09.321Z,1.90
2023-05-08T13:08:09.331Z,2.20
2023-05-08T13:22:09.318Z,1.90
2023-05-08T13:33:09.357Z,1.90
2023-05-08T13:44:09.314Z,1.80
2023-05-08T13:55:09.329Z,1.60
2023-05-08T14:06:09.331Z,1.90
2023-05-08T14:20:11.083Z,1.95
2023-05-08T14:31:09.392Z,1.60
2023-05-08T14:45:09.382Z,1.70
2023-05-08T14:59:09.393Z,1.50
2023-05-08T15:10:09.358Z,1.50
2023-05-08T15:21:09.370Z,1.70
2023-05-08T15:32:09.575Z,1.40
2023-05-08T15:46:09.426Z,1.50
2023-05-08T16:00:09.376Z,1.70
2023-05-08T16:11:09.383Z,1.70
2023-05-08T16:22:09.408Z,1.70
2023-05-08T16:36:09.398Z,1.50
2023-05-08T16:50:09.402Z,1.40
2023-05-08T17:01:09.427Z,1.70
2023-05-08T17:15:09.415Z,1.40
2023-05-08T17:29:09.464Z,1.40
2023-05-08T17:44:09.399Z,1.50
2023-05-08T17:58:09.422Z,2.00
2023-05-08T18:12:09.420Z,2.00
2023-05-08T18:25:09.414Z,2.20
2023-05-08T18:39:09.441Z,2.40
2023-05-08T18:53:09.443Z,6.60
2023-05-08T19:07:09.440Z,24.10
2023-05-08T19:20:09.469Z,32.40
2023-05-08T19:31:09.456Z,33.30
2023-05-08T19:44:09.456Z,33.90
2023-05-08T19:57:09.470Z,33.90
2023-05-08T20:10:09.464Z,31.80
2023-05-08T20:20:09.484Z,31.50
2023-05-08T20:30:09.483Z,31.00
2023-05-08T20:40:09.472Z,30.70
2023-05-08T20:53:09.475Z,30.20
2023-05-08T21:03:09.528Z,29.05
2023-05-08T21:16:09.534Z,27.80
2023-05-08T21:29:09.516Z,26.80
2023-05-08T21:42:09.517Z,25.70
2023-05-08T21:55:09.524Z,23.60
2023-05-08T22:08:09.529Z,23.00
2023-05-08T22:21:09.536Z,21.60
2023-05-08T22:34:09.531Z,20.20
2023-05-08T22:47:09.547Z,19.20
2023-05-08T23:00:09.546Z,17.80
2023-05-08T23:13:09.533Z,17.70
2023-05-08T23:26:09.552Z,16.20
2023-05-08T23:39:09.553Z,15.50
2023-05-08T23:52:09.559Z,15.30
